Time;durP1;ratioP1;P1;durP2;ratioP2;P2;SDS_P1;SDS_P2;PMS_P1;PMS_P2;Temp;Humidity;BMP_temperature;BMP_pressure;BME280_temperature;BME280_humidity;BME280_pressure;Samples;Min_cycle;Max_cycle;Signal;HPM_P1;HPM_P2
2023/08/16 00:01:57;;;;;;;1.73;1.20;;;;;;;;;;5114698;28;20066;-76
2023/08/16 00:04:23;;;;;;;1.05;1.00;;;;;;;;;;5078859;28;20016;-76
2023/08/16 00:06:49;;;;;;;1.80;1.38;;;;;;;;;;5096016;28;20470;-76
2023/08/16 00:09:20;;;;;;;1.65;1.20;;;;;;;;;;5095890;28;20042;-76
2023/08/16 00:11:45;;;;;;;1.38;1.02;;;;;;;;;;5096071;28;20359;-76
2023/08/16 00:14:11;;;;;;;2.92;1.00;;;;;;;;;;5095748;28;20046;-77
2023/08/16 00:16:36;;;;;;;2.75;1.00;;;;;;;;;;5078883;28;20047;-77
2023/08/16 00:19:02;;;;;;;1.58;1.02;;;;;;;;;;5096047;28;20049;-76
2023/08/16 00:21:27;;;;;;;3.83;1.25;;;;;;;;;;5114416;28;20035;-76
2023/08/16 00:23:52;;;;;;;1.30;1.08;;;;;;;;;;5078729;28;20059;-76
2023/08/16 00:26:18;;;;;;;1.30;1.10;;;;;;;;;;5096293;28;20027;-76
2023/08/16 00:28:45;;;;;;;2.40;1.13;;;;;;;;;;5095669;28;20033;-77
2023/08/16 00:31:11;;;;;;;1.15;0.98;;;;;;;;;;5095170;28;20371;-77
2023/08/16 00:33:37;;;;;;;1.08;0.98;;;;;;;;;;5113625;28;20042;-77
2023/08/16 00:36:02;;;;;;;1.10;1.00;;;;;;;;;;5095623;28;20454;-77
2023/08/16 00:38:28;;;;;;;1.48;1.20;;;;;;;;;;5079049;28;20047;-77
2023/08/16 00:40:53;;;;;;;1.00;1.00;;;;;;;;;;5078596;28;20031;-77
2023/08/16 00:43:19;;;;;;;3.70;0.90;;;;;;;;;;5078496;28;20034;-77
2023/08/16 00:45:48;;;;;;;4.15;1.33;;;;;;;;;;5113905;28;20027;-77
2023/08/16 00:48:13;;;;;;;1.23;1.10;;;;;;;;;;5078886;28;20027;-77
2023/08/16 00:50:39;;;;;;;1.83;1.00;;;;;;;;;;5095292;28;20027;-77
2023/08/16 00:53:05;;;;;;;1.52;1.42;;;;;;;;;;5113430;28;20482;-77
2023/08/16 00:55:31;;;;;;;0.88;0.88;;;;;;;;;;5095218;28;20034;-77
2023/08/16 00:57:57;;;;;;;1.92;1.10;;;;;;;;;;5114197;28;20416;-77
2023/08/16 01:00:23;;;;;;;1.30;1.20;;;;;;;;;;5113221;28;20073;-77
2023/08/16 01:02:48;;;;;;;1.42;1.27;;;;;;;;;;5095474;28;20385;-77
2023/08/16 01:05:15;;;;;;;1.27;1.17;;;;;;;;;;5095321;28;20526;-77
2023/08/16 01:07:40;;;;;;;2.28;1.02;;;;;;;;;;5095584;28;20070;-77
2023/08/16 01:10:06;;;;;;;1.20;1.10;;;;;;;;;;5113285;28;20047;-77
2023/08/16 01:13:11;;;;;;;1.00;1.00;;;;;;;;;;5095413;28;20035;-77
2023/08/16 01:15:38;;;;;;;1.55;1.17;;;;;;;;;;5023198;28;20045;-77
2023/08/16 01:18:04;;;;;;;1.45;1.10;;;;;;;;;;5095201;28;20465;-77
2023/08/16 01:20:30;;;;;;;1.88;1.05;;;;;;;;;;5094889;28;20085;-77
2023/08/16 01:23:25;;;;;;;0.90;0.90;;;;;;;;;;5077999;28;20390;-76
2023/08/16 01:26:17;;;;;;;1.20;1.10;;;;;;;;;;5074057;28;20035;-77
2023/08/16 01:28:44;;;;;;;1.67;1.20;;;;;;;;;;5113138;28;20062;-77
2023/08/16 01:31:09;;;;;;;4.30;1.10;;;;;;;;;;5113377;28;20481;-77
2023/08/16 01:33:35;;;;;;;1.00;1.00;;;;;;;;;;5113270;28;20028;-77
2023/08/16 01:36:00;;;;;;;1.85;0.95;;;;;;;;;;5094148;28;20024;-76
2023/08/16 01:38:26;;;;;;;1.42;1.13;;;;;;;;;;5095409;28;20119;-77
2023/08/16 01:40:59;;;;;;;1.75;0.98;;;;;;;;;;5095456;28;20390;-76
2023/08/16 01:43:25;;;;;;;;;;;;;;;;;;5099026;28;20054;-77
2023/08/16 01:45:51;;;;;;;1.37;1.00;;;;;;;;;;5081454;28;19907;-77
2023/08/16 01:48:18;;;;;;;2.15;0.90;;;;;;;;;;5081867;28;20264;-77
2023/08/16 01:50:44;;;;;;;2.50;1.00;;;;;;;;;;5098527;28;20096;-77
2023/08/16 01:53:09;;;;;;;1.23;1.10;;;;;;;;;;5116431;28;20466;-77
2023/08/16 01:55:35;;;;;;;1.48;0.98;;;;;;;;;;5116357;28;20034;-77
2023/08/16 01:58:01;;;;;;;1.58;0.93;;;;;;;;;;5116360;28;20543;-77
2023/08/16 02:00:26;;;;;;;2.00;1.10;;;;;;;;;;5098009;28;20039;-76
2023/08/16 02:02:51;;;;;;;1.95;1.10;;;;;;;;;;5116516;28;20046;-76
2023/08/16 02:05:17;;;;;;;1.23;1.13;;;;;;;;;;5116270;28;20024;-76
2023/08/16 02:07:42;;;;;;;1.40;1.00;;;;;;;;;;5116486;28;20031;-77
2023/08/16 02:10:08;;;;;;;1.52;0.98;;;;;;;;;;5116255;28;20035;-77
2023/08/16 02:12:33;;;;;;;1.13;1.00;;;;;;;;;;5098050;28;20110;-76
2023/08/16 02:14:58;;;;;;;1.55;1.05;;;;;;;;;;5116204;28;20042;-77
2023/08/16 02:17:24;;;;;;;1.52;1.42;;;;;;;;;;5098132;28;20061;-77
2023/08/16 02:19:49;;;;;;;1.10;1.00;;;;;;;;;;5097804;28;20050;-77
2023/08/16 02:22:14;;;;;;;2.13;1.20;;;;;;;;;;5098470;28;20032;-77
2023/08/16 02:24:40;;;;;;;0.88;0.82;;;;;;;;;;5080980;28;20019;-77
2023/08/16 02:27:05;;;;;;;1.30;1.20;;;;;;;;;;5097903;28;20119;-77
2023/08/16 02:29:31;;;;;;;4.25;1.13;;;;;;;;;;5097591;28;20062;-77
2023/08/16 02:31:56;;;;;;;1.40;0.90;;;;;;;;;;5115651;28;20039;-77
2023/08/16 02:34:22;;;;;;;1.05;0.95;;;;;;;;;;5115574;28;20036;-77
2023/08/16 02:36:47;;;;;;;1.02;0.93;;;;;;;;;;5097438;28;20034;-76
2023/08/16 02:39:12;;;;;;;2.22;1.27;;;;;;;;;;5115518;28;20024;-77
2023/08/16 02:41:38;;;;;;;1.15;1.00;;;;;;;;;;5097534;28;20538;-77
2023/08/16 02:44:03;;;;;;;1.08;0.93;;;;;;;;;;5115780;28;20034;-76
2023/08/16 02:46:29;;;;;;;1.58;1.30;;;;;;;;;;5097545;28;20047;-77
2023/08/16 02:48:54;;;;;;;1.65;0.98;;;;;;;;;;5115644;28;20031;-77
2023/08/16 02:51:19;;;;;;;1.10;1.00;;;;;;;;;;5115643;28;20039;-78
2023/08/16 02:53:45;;;;;;;2.55;1.13;;;;;;;;;;5096231;28;20378;-77
2023/08/16 02:56:10;;;;;;;0.85;0.85;;;;;;;;;;5096948;28;20024;-77
2023/08/16 02:58:36;;;;;;;1.02;0.88;;;;;;;;;;5096830;28;20032;-78
2023/08/16 03:01:01;;;;;;;0.90;0.80;;;;;;;;;;5096751;28;20051;-77
2023/08/16 03:03:26;;;;;;;0.95;0.95;;;;;;;;;;5096789;28;20027;-77
2023/08/16 03:05:52;;;;;;;1.48;1.02;;;;;;;;;;5115280;28;20420;-77
2023/08/16 03:08:17;;;;;;;1.35;0.85;;;;;;;;;;5096719;28;20035;-77
2023/08/16 03:10:43;;;;;;;1.00;1.00;;;;;;;;;;5115127;28;20426;-77
2023/08/16 03:13:08;;;;;;;1.13;0.90;;;;;;;;;;5079948;28;20060;-77
2023/08/16 03:15:34;;;;;;;1.65;1.00;;;;;;;;;;5114926;28;20115;-78
2023/08/16 03:17:59;;;;;;;0.68;0.65;;;;;;;;;;5114816;28;20083;-77
2023/08/16 03:20:25;;;;;;;1.98;0.93;;;;;;;;;;5114688;28;20051;-77
2023/08/16 03:22:50;;;;;;;1.33;0.95;;;;;;;;;;5096807;28;20431;-77
2023/08/16 03:25:16;;;;;;;1.13;0.90;;;;;;;;;;5096381;28;20031;-77
2023/08/16 03:27:42;;;;;;;1.30;0.98;;;;;;;;;;5096683;28;20028;-77
2023/08/16 03:30:07;;;;;;;0.98;0.95;;;;;;;;;;5114827;28;20390;-77
2023/08/16 03:32:33;;;;;;;1.80;0.93;;;;;;;;;;5114451;28;20023;-77
2023/08/16 03:34:58;;;;;;;0.80;0.80;;;;;;;;;;5096343;28;20023;-77
2023/08/16 03:37:23;;;;;;;2.53;0.70;;;;;;;;;;5114565;28;20027;-77
2023/08/16 03:39:51;;;;;;;1.17;0.98;;;;;;;;;;5114535;28;20027;-77
2023/08/16 03:42:16;;;;;;;1.13;0.93;;;;;;;;;;5079978;28;20023;-76
2023/08/16 03:44:42;;;;;;;0.80;0.80;;;;;;;;;;5096384;28;20015;-77
2023/08/16 03:47:07;;;;;;;1.27;0.90;;;;;;;;;;5079738;28;20035;-76
2023/08/16 03:49:32;;;;;;;1.48;0.98;;;;;;;;;;5114218;28;20030;-76
2023/08/16 03:51:58;;;;;;;1.20;1.10;;;;;;;;;;5114571;28;20031;-77
2023/08/16 03:54:23;;;;;;;2.38;0.98;;;;;;;;;;5114126;28;20028;-77
2023/08/16 03:56:49;;;;;;;1.15;1.00;;;;;;;;;;5095927;28;20119;-77
2023/08/16 03:59:14;;;;;;;0.95;0.80;;;;;;;;;;5114250;28;20027;-77
2023/08/16 04:01:39;;;;;;;0.70;0.70;;;;;;;;;;5095465;28;20066;-77
2023/08/16 04:04:05;;;;;;;2.70;0.77;;;;;;;;;;5079096;28;20043;-77
2023/08/16 04:06:30;;;;;;;1.63;1.00;;;;;;;;;;5095989;28;20023;-77
2023/08/16 04:08:55;;;;;;;1.17;0.80;;;;;;;;;;5096132;28;20031;-77
2023/08/16 04:11:21;;;;;;;1.40;1.30;;;;;;;;;;5095885;28;20122;-77
2023/08/16 04:13:46;;;;;;;0.68;0.68;;;;;;;;;;5114023;28;20036;-77
2023/08/16 04:16:12;;;;;;;2.42;0.95;;;;;;;;;;5078796;28;20038;-77
2023/08/16 04:18:37;;;;;;;1.38;1.00;;;;;;;;;;5095648;28;20023;-77
2023/08/16 04:21:03;;;;;;;1.27;0.90;;;;;;;;;;5113852;28;20023;-78
2023/08/16 04:23:28;;;;;;;1.63;1.00;;;;;;;;;;5113929;28;20031;-77
2023/08/16 04:25:54;;;;;;;0.80;0.80;;;;;;;;;;5078887;28;20031;-77
2023/08/16 04:28:19;;;;;;;2.55;1.20;;;;;;;;;;5062122;28;20028;-78
2023/08/16 04:30:45;;;;;;;5.00;2.22;;;;;;;;;;5096052;28;20027;-77
2023/08/16 04:33:10;;;;;;;3.78;1.80;;;;;;;;;;5095843;28;20367;-77
2023/08/16 04:35:35;;;;;;;9.07;1.80;;;;;;;;;;5114159;28;20028;-76
2023/08/16 04:38:01;;;;;;;5.15;1.80;;;;;;;;;;5095484;28;20423;-77
2023/08/16 04:40:26;;;;;;;7.75;2.17;;;;;;;;;;5095563;28;20028;-77
2023/08/16 04:42:52;;;;;;;4.25;2.03;;;;;;;;;;5113762;28;20037;-76
2023/08/16 04:45:17;;;;;;;6.70;2.08;;;;;;;;;;5113826;28;20486;-77
2023/08/16 04:47:42;;;;;;;5.65;2.25;;;;;;;;;;5114003;28;20028;-77
2023/08/16 04:50:08;;;;;;;5.00;1.75;;;;;;;;;;5113646;28;20051;-77
2023/08/16 04:52:35;;;;;;;6.47;1.45;;;;;;;;;;5114147;28;20462;-77
2023/08/16 04:55:00;;;;;;;3.25;1.17;;;;;;;;;;5113832;28;20027;-77
2023/08/16 04:57:26;;;;;;;4.20;1.10;;;;;;;;;;5113666;28;20110;-77
2023/08/16 04:59:51;;;;;;;1.40;1.00;;;;;;;;;;5095056;28;20031;-76
2023/08/16 05:02:16;;;;;;;2.33;1.13;;;;;;;;;;5113764;28;20024;-75
2023/08/16 05:04:42;;;;;;;3.83;1.33;;;;;;;;;;5095378;28;20106;-76
2023/08/16 05:07:07;;;;;;;2.40;1.05;;;;;;;;;;5095503;28;20031;-76
2023/08/16 05:09:33;;;;;;;3.08;1.42;;;;;;;;;;5096094;28;20032;-76
2023/08/16 05:11:58;;;;;;;2.78;1.55;;;;;;;;;;5095773;28;20397;-76
2023/08/16 05:14:23;;;;;;;6.60;2.53;;;;;;;;;;5078348;28;20081;-76
2023/08/16 05:16:49;;;;;;;11.35;2.65;;;;;;;;;;5115774;28;20038;-76
2023/08/16 05:19:14;;;;;;;14.80;2.95;;;;;;;;;;5117643;28;20050;-76
2023/08/16 05:21:40;;;;;;;9.13;2.95;;;;;;;;;;5117958;28;20039;-75
2023/08/16 05:24:05;;;;;;;11.82;3.03;;;;;;;;;;5099275;28;20442;-77
2023/08/16 05:26:31;;;;;;;7.90;2.63;;;;;;;;;;5117287;28;20026;-76
2023/08/16 05:28:58;;;;;;;10.05;2.90;;;;;;;;;;5099126;28;20027;-76
2023/08/16 05:31:23;;;;;;;10.23;3.20;;;;;;;;;;5117283;28;20062;-75
2023/08/16 05:33:49;;;;;;;9.85;2.67;;;;;;;;;;5117385;28;20431;-76
2023/08/16 05:36:14;;;;;;;9.35;2.45;;;;;;;;;;5098763;28;20028;-76
2023/08/16 05:38:40;;;;;;;7.43;2.10;;;;;;;;;;5098860;28;20043;-76
2023/08/16 05:41:05;;;;;;;6.82;1.90;;;;;;;;;;5098733;28;20058;-76
2023/08/16 05:43:31;;;;;;;5.78;2.00;;;;;;;;;;5098765;28;20474;-76
2023/08/16 05:45:57;;;;;;;5.25;1.70;;;;;;;;;;5081821;28;20462;-76
2023/08/16 05:48:22;;;;;;;2.75;1.63;;;;;;;;;;5117076;28;20119;-76
2023/08/16 05:50:48;;;;;;;5.03;1.40;;;;;;;;;;5098903;28;20039;-76
2023/08/16 05:53:13;;;;;;;3.15;1.48;;;;;;;;;;5099173;28;20024;-76
2023/08/16 05:55:38;;;;;;;2.90;1.50;;;;;;;;;;5081359;28;20385;-76
2023/08/16 05:58:04;;;;;;;6.00;1.52;;;;;;;;;;5117066;28;20046;-76
2023/08/16 06:00:30;;;;;;;3.80;1.58;;;;;;;;;;5098173;28;20052;-77
2023/08/16 06:02:55;;;;;;;4.93;1.70;;;;;;;;;;5081282;28;20035;-77
2023/08/16 06:05:20;;;;;;;5.07;1.58;;;;;;;;;;5116434;28;20039;-76
2023/08/16 06:07:46;;;;;;;2.95;1.60;;;;;;;;;;5116689;28;20050;-77
2023/08/16 06:10:11;;;;;;;2.67;1.45;;;;;;;;;;5116268;28;20106;-77
2023/08/16 06:12:37;;;;;;;2.15;1.60;;;;;;;;;;5116252;28;20035;-77
2023/08/16 06:15:03;;;;;;;2.35;1.40;;;;;;;;;;5116714;28;20032;-77
2023/08/16 06:17:28;;;;;;;3.75;1.65;;;;;;;;;;5098044;28;20035;-76
2023/08/16 06:19:54;;;;;;;2.75;1.80;;;;;;;;;;5097984;28;20031;-77
2023/08/16 06:22:19;;;;;;;3.05;1.60;;;;;;;;;;5098602;28;20450;-77
2023/08/16 06:24:45;;;;;;;3.60;1.58;;;;;;;;;;5098523;28;20027;-77
2023/08/16 06:27:10;;;;;;;2.55;1.40;;;;;;;;;;5096927;28;20035;-76
2023/08/16 06:29:35;;;;;;;2.70;1.35;;;;;;;;;;5097432;28;20398;-77
2023/08/16 06:32:01;;;;;;;1.88;1.20;;;;;;;;;;5081027;28;20039;-76
2023/08/16 06:34:27;;;;;;;3.08;1.33;;;;;;;;;;5116449;28;20030;-77
2023/08/16 06:36:53;;;;;;;2.28;1.33;;;;;;;;;;5116378;28;20042;-77
2023/08/16 06:39:18;;;;;;;3.42;1.50;;;;;;;;;;5097514;28;20046;-77
2023/08/16 06:41:44;;;;;;;2.05;1.40;;;;;;;;;;5115677;28;20051;-76
2023/08/16 06:44:10;;;;;;;1.67;1.25;;;;;;;;;;5116341;28;20039;-77
2023/08/16 06:46:35;;;;;;;3.80;1.38;;;;;;;;;;5116003;28;20074;-77
2023/08/16 06:49:00;;;;;;;2.55;1.15;;;;;;;;;;5097429;28;20031;-77
2023/08/16 06:51:26;;;;;;;3.78;1.58;;;;;;;;;;5097467;28;20034;-76
2023/08/16 06:53:51;;;;;;;2.38;1.10;;;;;;;;;;5063668;28;20043;-77
2023/08/16 06:56:17;;;;;;;1.42;1.08;;;;;;;;;;5080632;28;20057;-77
2023/08/16 06:58:42;;;;;;;3.88;1.02;;;;;;;;;;5115579;28;20065;-77
2023/08/16 07:01:08;;;;;;;3.50;1.10;;;;;;;;;;5115223;28;20071;-76
2023/08/16 07:03:34;;;;;;;3.55;1.50;;;;;;;;;;5080677;28;20482;-77
2023/08/16 07:06:00;;;;;;;1.80;1.20;;;;;;;;;;5080907;28;20458;-77
2023/08/16 07:08:25;;;;;;;4.90;1.70;;;;;;;;;;5097292;28;20074;-77
2023/08/16 07:10:51;;;;;;;5.47;1.17;;;;;;;;;;5097572;28;20111;-77
2023/08/16 07:13:16;;;;;;;2.17;1.23;;;;;;;;;;5063413;28;20024;-77
2023/08/16 07:15:42;;;;;;;1.30;0.90;;;;;;;;;;5096944;28;20036;-77
2023/08/16 07:18:07;;;;;;;2.60;1.30;;;;;;;;;;5096829;28;20075;-77
2023/08/16 07:20:32;;;;;;;3.58;0.90;;;;;;;;;;5115305;28;20028;-77
2023/08/16 07:22:58;;;;;;;2.45;1.35;;;;;;;;;;5097081;28;20481;-77
2023/08/16 07:25:26;;;;;;;2.35;1.27;;;;;;;;;;5097321;28;20024;-77
2023/08/16 07:27:51;;;;;;;1.83;1.08;;;;;;;;;;5079746;28;20035;-76
2023/08/16 07:30:17;;;;;;;1.92;1.00;;;;;;;;;;5115668;28;20034;-77
2023/08/16 07:32:42;;;;;;;2.00;0.90;;;;;;;;;;5081236;28;20031;-77
2023/08/16 07:35:09;;;;;;;2.10;1.08;;;;;;;;;;5115252;28;20053;-77
2023/08/16 07:37:34;;;;;;;3.05;1.00;;;;;;;;;;5097251;28;20033;-77
2023/08/16 07:40:00;;;;;;;1.75;0.90;;;;;;;;;;5081120;28;20114;-77
2023/08/16 07:42:26;;;;;;;4.30;1.20;;;;;;;;;;5098887;28;20020;-77
2023/08/16 07:44:51;;;;;;;2.22;0.95;;;;;;;;;;5099419;28;20458;-77
2023/08/16 07:47:17;;;;;;;1.58;1.00;;;;;;;;;;5080286;28;20482;-77
2023/08/16 07:49:43;;;;;;;1.48;1.00;;;;;;;;;;5116214;28;20023;-77
2023/08/16 07:52:08;;;;;;;1.45;0.98;;;;;;;;;;5126071;28;20039;-77
2023/08/16 07:54:33;;;;;;;1.20;0.90;;;;;;;;;;5125583;28;20035;-77
2023/08/16 07:56:59;;;;;;;3.22;1.05;;;;;;;;;;5119486;28;20474;-78
2023/08/16 07:59:24;;;;;;;1.13;1.00;;;;;;;;;;5096700;28;20030;-78
2023/08/16 08:01:51;;;;;;;2.40;1.10;;;;;;;;;;5102950;28;20063;-77
2023/08/16 08:04:17;;;;;;;3.33;1.02;;;;;;;;;;5114403;28;20031;-77
2023/08/16 08:06:43;;;;;;;2.65;0.80;;;;;;;;;;5096425;28;20026;-77
2023/08/16 08:09:09;;;;;;;1.45;0.90;;;;;;;;;;5114517;28;20031;-77
2023/08/16 08:11:34;;;;;;;2.28;1.00;;;;;;;;;;5079143;28;20036;-77
2023/08/16 08:13:59;;;;;;;1.50;1.00;;;;;;;;;;5096229;28;20028;-77
2023/08/16 08:16:25;;;;;;;1.00;0.70;;;;;;;;;;5114087;28;20031;-77
2023/08/16 08:18:51;;;;;;;0.80;0.80;;;;;;;;;;5096722;28;20450;-77
2023/08/16 08:21:16;;;;;;;1.33;0.80;;;;;;;;;;5114193;28;20035;-77
2023/08/16 08:23:41;;;;;;;1.45;0.70;;;;;;;;;;5113989;28;20504;-77
2023/08/16 08:26:07;;;;;;;1.35;0.90;;;;;;;;;;5095727;28;20027;-77
2023/08/16 08:28:32;;;;;;;2.22;1.00;;;;;;;;;;5113979;28;20118;-77
2023/08/16 08:31:04;;;;;;;1.80;0.80;;;;;;;;;;5114022;28;20027;-78
2023/08/16 08:33:30;;;;;;;1.02;0.70;;;;;;;;;;5114171;28;20027;-77
2023/08/16 08:35:56;;;;;;;2.35;0.80;;;;;;;;;;5095926;28;20032;-77
2023/08/16 08:38:22;;;;;;;2.00;0.75;;;;;;;;;;5114208;28;20424;-77
2023/08/16 08:40:55;;;;;;;2.60;1.00;;;;;;;;;;5113667;28;20390;-77
2023/08/16 08:43:35;;;;;;;1.05;0.80;;;;;;;;;;5095593;28;20479;-77
2023/08/16 08:46:03;;;;;;;2.08;1.05;;;;;;;;;;5113558;28;20051;-77
2023/08/16 08:48:29;;;;;;;1.42;0.90;;;;;;;;;;5095037;28;20064;-77
2023/08/16 08:50:55;;;;;;;2.50;0.90;;;;;;;;;;5095804;28;20031;-78
2023/08/16 08:53:21;;;;;;;2.03;0.90;;;;;;;;;;5099128;28;20028;-77
2023/08/16 08:55:54;;;;;;;12.98;1.30;;;;;;;;;;5117372;28;20073;-76
2023/08/16 08:58:21;;;;;;;4.78;1.00;;;;;;;;;;5099595;28;20031;-78
2023/08/16 09:00:47;;;;;;;4.95;0.80;;;;;;;;;;5117117;28;20418;-78
2023/08/16 09:03:13;;;;;;;2.30;0.90;;;;;;;;;;5080312;27;20035;-76
2023/08/16 09:05:39;;;;;;;2.08;1.02;;;;;;;;;;5117952;27;20016;-76
2023/08/16 09:08:05;;;;;;;4.97;0.90;;;;;;;;;;5115415;27;20027;-76
2023/08/16 09:10:36;;;;;;;4.43;1.00;;;;;;;;;;5077945;28;20162;-78
2023/08/16 09:13:04;;;;;;;1.02;0.77;;;;;;;;;;5108303;27;20027;-76
2023/08/16 09:15:29;;;;;;;1.73;0.88;;;;;;;;;;5123001;27;20099;-76
2023/08/16 09:18:05;;;;;;;2.33;0.80;;;;;;;;;;5098178;27;20487;-77
2023/08/16 09:20:31;;;;;;;3.97;0.93;;;;;;;;;;5120928;27;20027;-78
2023/08/16 09:22:56;;;;;;;2.63;0.70;;;;;;;;;;5104660;28;20032;-78
2023/08/16 09:25:24;;;;;;;5.80;1.15;;;;;;;;;;5082212;28;20031;-78
2023/08/16 09:27:50;;;;;;;2.83;0.77;;;;;;;;;;5117343;28;20028;-75
2023/08/16 09:30:16;;;;;;;4.22;1.13;;;;;;;;;;5117267;28;20065;-77
2023/08/16 09:32:41;;;;;;;2.05;0.88;;;;;;;;;;5117373;28;20416;-77
2023/08/16 09:35:12;;;;;;;1.25;0.80;;;;;;;;;;5117599;28;20032;-76
2023/08/16 09:37:38;;;;;;;3.83;0.80;;;;;;;;;;5099815;28;20126;-76
2023/08/16 09:40:06;;;;;;;5.22;0.80;;;;;;;;;;5098702;28;20023;-77
2023/08/16 09:42:34;;;;;;;0.63;0.63;;;;;;;;;;5082187;28;20080;-78
2023/08/16 09:45:01;;;;;;;1.00;0.77;;;;;;;;;;5099260;28;20039;-77
2023/08/16 09:47:30;;;;;;;2.67;0.93;;;;;;;;;;5099047;28;20034;-77
2023/08/16 09:49:57;;;;;;;1.35;0.57;;;;;;;;;;5082412;28;20517;-77
2023/08/16 09:52:22;;;;;;;2.47;0.95;;;;;;;;;;5098713;28;20032;-78
2023/08/16 09:54:49;;;;;;;1.08;0.73;;;;;;;;;;5098595;28;20088;-76
2023/08/16 09:57:16;;;;;;;6.07;1.02;;;;;;;;;;5081669;28;20030;-77
2023/08/16 09:59:42;;;;;;;2.53;1.08;;;;;;;;;;5098470;28;20102;-77
2023/08/16 10:02:11;;;;;;;4.03;0.88;;;;;;;;;;5098197;28;20127;-77
2023/08/16 10:04:36;;;;;;;1.23;0.77;;;;;;;;;;5098476;28;20490;-77
2023/08/16 10:07:02;;;;;;;0.70;0.70;;;;;;;;;;5117038;28;20027;-77
2023/08/16 10:09:27;;;;;;;4.38;1.52;;;;;;;;;;5081167;28;20027;-77
2023/08/16 10:11:53;;;;;;;0.90;0.73;;;;;;;;;;5098575;28;20054;-77
2023/08/16 10:14:19;;;;;;;6.55;0.93;;;;;;;;;;5116634;28;20035;-77
2023/08/16 10:16:46;;;;;;;1.55;0.90;;;;;;;;;;5097946;28;20595;-77
2023/08/16 10:19:15;;;;;;;2.33;0.88;;;;;;;;;;5098081;28;20104;-77
2023/08/16 10:21:43;;;;;;;3.42;1.15;;;;;;;;;;5098591;28;20031;-77
2023/08/16 10:24:10;;;;;;;2.83;0.98;;;;;;;;;;5098007;28;20073;-78
2023/08/16 10:26:36;;;;;;;0.63;0.63;;;;;;;;;;5098180;28;20428;-77
2023/08/16 10:29:07;;;;;;;1.40;0.90;;;;;;;;;;5097895;28;20020;-77
2023/08/16 10:31:36;;;;;;;2.28;0.80;;;;;;;;;;5097568;28;20072;-77
2023/08/16 10:34:03;;;;;;;2.15;0.77;;;;;;;;;;5097825;28;20165;-77
2023/08/16 10:36:29;;;;;;;1.48;0.63;;;;;;;;;;5116327;28;20031;-77
2023/08/16 10:38:56;;;;;;;2.95;0.88;;;;;;;;;;5097902;28;20031;-78
2023/08/16 10:41:21;;;;;;;1.25;0.70;;;;;;;;;;5097928;28;20024;-77
2023/08/16 10:43:49;;;;;;;3.50;0.90;;;;;;;;;;5097778;28;20549;-77
2023/08/16 10:46:27;;;;;;;1.67;0.70;;;;;;;;;;5080458;28;20026;-77
2023/08/16 10:49:06;;;;;;;0.90;0.70;;;;;;;;;;5097470;28;20466;-77
2023/08/16 10:51:45;;;;;;;1.02;0.70;;;;;;;;;;5097341;28;20466;-77
2023/08/16 10:54:11;;;;;;;9.65;2.78;;;;;;;;;;5097535;28;20027;-76
2023/08/16 10:56:38;;;;;;;12.80;2.85;;;;;;;;;;5080339;28;20028;-76
2023/08/16 10:59:06;;;;;;;9.38;2.20;;;;;;;;;;5097137;28;20042;-77
2023/08/16 11:01:34;;;;;;;6.63;2.33;;;;;;;;;;5096468;28;20047;-77
2023/08/16 11:04:02;;;;;;;6.75;1.70;;;;;;;;;;5114789;28;20047;-77
2023/08/16 11:06:28;;;;;;;5.22;1.70;;;;;;;;;;5096853;28;20020;-77
2023/08/16 11:08:53;;;;;;;4.88;2.20;;;;;;;;;;5079679;28;20035;-77
2023/08/16 11:11:19;;;;;;;3.53;1.30;;;;;;;;;;5114630;28;20039;-77
2023/08/16 11:13:44;;;;;;;3.05;1.48;;;;;;;;;;5095656;28;20144;-77
2023/08/16 11:16:12;;;;;;;2.75;1.50;;;;;;;;;;5114179;28;20031;-77
2023/08/16 11:18:41;;;;;;;4.15;1.80;;;;;;;;;;5096308;28;20019;-77
2023/08/16 11:21:07;;;;;;;2.80;1.45;;;;;;;;;;5096468;28;20062;-77
2023/08/16 11:23:37;;;;;;;4.68;1.50;;;;;;;;;;5114298;28;20530;-79
2023/08/16 11:26:03;;;;;;;2.05;1.27;;;;;;;;;;5113160;28;20027;-78
2023/08/16 11:28:30;;;;;;;3.38;1.40;;;;;;;;;;5113155;28;20504;-78
2023/08/16 11:31:00;;;;;;;5.40;1.10;;;;;;;;;;5096325;28;20518;-78
2023/08/16 11:33:35;;;;;;;1.40;1.00;;;;;;;;;;5113294;28;20106;-79
2023/08/16 11:36:02;;;;;;;2.40;1.00;;;;;;;;;;5113574;28;20028;-79
2023/08/16 11:38:27;;;;;;;1.75;0.90;;;;;;;;;;5114161;28;20031;-78
2023/08/16 11:40:54;;;;;;;1.63;1.15;;;;;;;;;;5113228;28;20023;-80
2023/08/16 11:43:25;;;;;;;3.05;1.08;;;;;;;;;;5112996;28;20032;-79
2023/08/16 11:45:52;;;;;;;4.85;1.30;;;;;;;;;;5102688;28;20031;-78
2023/08/16 11:48:17;;;;;;;4.03;1.60;;;;;;;;;;5079954;28;20031;-78
2023/08/16 11:50:42;;;;;;;2.10;1.20;;;;;;;;;;5080548;28;20034;-79
2023/08/16 11:53:08;;;;;;;2.00;1.20;;;;;;;;;;5098005;28;20050;-78
2023/08/16 11:55:35;;;;;;;4.40;1.30;;;;;;;;;;5063647;28;20023;-79
2023/08/16 11:58:04;;;;;;;4.65;1.35;;;;;;;;;;5079948;28;20024;-79
2023/08/16 12:00:32;;;;;;;6.18;1.20;;;;;;;;;;5097031;28;20020;-77
2023/08/16 12:02:57;;;;;;;3.70;1.40;;;;;;;;;;5079930;28;20122;-77
2023/08/16 12:05:23;;;;;;;3.22;1.30;;;;;;;;;;5096231;28;20055;-79
2023/08/16 12:07:54;;;;;;;2.38;1.10;;;;;;;;;;5080309;28;20035;-79
2023/08/16 12:10:23;;;;;;;2.40;1.25;;;;;;;;;;5114797;28;20114;-78
2023/08/16 12:12:52;;;;;;;4.40;1.20;;;;;;;;;;5096909;28;20063;-80
2023/08/16 12:15:18;;;;;;;10.63;1.50;;;;;;;;;;5096454;28;20106;-79
2023/08/16 12:17:43;;;;;;;3.53;1.40;;;;;;;;;;5114696;28;20032;-79
2023/08/16 12:20:09;;;;;;;2.85;1.10;;;;;;;;;;5096130;28;20382;-80
2023/08/16 12:22:35;;;;;;;2.30;1.20;;;;;;;;;;5079997;28;20042;-79
2023/08/16 12:25:01;;;;;;;3.10;1.50;;;;;;;;;;5076960;28;20027;-79
2023/08/16 12:27:27;;;;;;;5.10;1.27;;;;;;;;;;5121365;27;20031;-79
2023/08/16 12:29:52;;;;;;;2.53;1.38;;;;;;;;;;5112175;28;20117;-79
2023/08/16 12:32:17;;;;;;;2.03;1.27;;;;;;;;;;5116669;28;20051;-80
2023/08/16 12:34:43;;;;;;;3.33;1.50;;;;;;;;;;5109460;28;20102;-79
2023/08/16 12:37:10;;;;;;;1.80;1.20;;;;;;;;;;5120466;28;20031;-79
2023/08/16 12:39:35;;;;;;;2.10;1.27;;;;;;;;;;5104054;28;20023;-80
2023/08/16 12:42:01;;;;;;;3.28;1.35;;;;;;;;;;5131709;28;20034;-80
2023/08/16 12:44:26;;;;;;;1.33;1.10;;;;;;;;;;5118018;28;20504;-78
2023/08/16 12:46:51;;;;;;;2.20;1.05;;;;;;;;;;5119579;28;20068;-79
2023/08/16 12:49:17;;;;;;;1.40;1.00;;;;;;;;;;5098536;28;20035;-79
2023/08/16 12:51:43;;;;;;;1.05;0.95;;;;;;;;;;5092720;28;20047;-79
2023/08/16 12:54:09;;;;;;;1.30;1.10;;;;;;;;;;5123829;28;20034;-78
2023/08/16 12:56:34;;;;;;;1.67;1.10;;;;;;;;;;5101260;28;20028;-79
2023/08/16 12:59:00;;;;;;;1.77;1.30;;;;;;;;;;5111705;28;20023;-79
2023/08/16 13:01:25;;;;;;;1.95;1.08;;;;;;;;;;5117335;28;20050;-79
2023/08/16 13:03:51;;;;;;;2.25;1.13;;;;;;;;;;5125545;28;20146;-78
2023/08/16 13:06:17;;;;;;;2.40;1.13;;;;;;;;;;5124554;28;20465;-79
2023/08/16 13:08:42;;;;;;;1.27;1.00;;;;;;;;;;5117761;28;20119;-79
2023/08/16 13:11:08;;;;;;;1.10;0.82;;;;;;;;;;5095352;28;20432;-78
2023/08/16 13:13:33;;;;;;;2.90;0.77;;;;;;;;;;5077974;28;20039;-79
2023/08/16 13:15:59;;;;;;;0.95;0.90;;;;;;;;;;5061594;28;20030;-78
2023/08/16 13:18:25;;;;;;;2.22;1.20;;;;;;;;;;5115010;28;20081;-78
2023/08/16 13:20:50;;;;;;;3.20;1.60;;;;;;;;;;5113657;28;20063;-78
2023/08/16 13:23:16;;;;;;;3.22;1.20;;;;;;;;;;5094646;28;20031;-80
2023/08/16 13:25:42;;;;;;;3.75;1.52;;;;;;;;;;5112749;28;20024;-78
2023/08/16 13:28:08;;;;;;;2.95;1.30;;;;;;;;;;5078343;28;20032;-78
2023/08/16 13:30:38;;;;;;;1.40;1.00;;;;;;;;;;5096704;28;20035;-79
2023/08/16 13:33:04;;;;;;;2.83;1.02;;;;;;;;;;5113203;28;20023;-77
2023/08/16 13:35:43;;;;;;;3.10;1.35;;;;;;;;;;5097580;28;20027;-78
2023/08/16 13:38:17;;;;;;;1.60;1.10;;;;;;;;;;5098563;28;20024;-78
2023/08/16 13:40:49;;;;;;;2.03;1.10;;;;;;;;;;5099281;28;20110;-78
2023/08/16 13:43:15;;;;;;;0.93;0.90;;;;;;;;;;5098538;28;20478;-78
2023/08/16 13:45:44;;;;;;;1.90;0.98;;;;;;;;;;5117316;28;20739;-79
2023/08/16 13:48:09;;;;;;;4.40;1.05;;;;;;;;;;5099240;28;20023;-78
2023/08/16 13:50:34;;;;;;;2.40;1.10;;;;;;;;;;5117229;28;20535;-77
2023/08/16 13:53:00;;;;;;;2.17;0.93;;;;;;;;;;5098252;28;20055;-77
2023/08/16 13:55:25;;;;;;;2.60;1.40;;;;;;;;;;5098604;28;20533;-78
2023/08/16 13:57:51;;;;;;;2.35;1.05;;;;;;;;;;5117878;28;20024;-78
2023/08/16 14:00:16;;;;;;;2.10;1.10;;;;;;;;;;5118310;28;20031;-77
2023/08/16 14:02:42;;;;;;;1.55;0.90;;;;;;;;;;5119053;28;20139;-77
2023/08/16 14:05:08;;;;;;;3.60;1.10;;;;;;;;;;5106738;28;20047;-77
2023/08/16 14:07:33;;;;;;;1.00;0.80;;;;;;;;;;5102091;28;20024;-78
2023/08/16 14:09:59;;;;;;;3.50;0.95;;;;;;;;;;5118283;28;20032;-78
2023/08/16 14:12:24;;;;;;;1.75;1.20;;;;;;;;;;5117056;28;20390;-77
2023/08/16 14:14:50;;;;;;;2.40;1.27;;;;;;;;;;5116157;28;20039;-78
2023/08/16 14:17:15;;;;;;;2.30;1.63;;;;;;;;;;5099205;28;20391;-77
2023/08/16 14:19:41;;;;;;;1.63;0.82;;;;;;;;;;5115945;28;20437;-78
2023/08/16 14:22:06;;;;;;;2.05;0.93;;;;;;;;;;5098416;28;20024;-77
2023/08/16 14:24:32;;;;;;;3.30;0.90;;;;;;;;;;5116694;28;20032;-77
2023/08/16 14:26:58;;;;;;;2.83;0.90;;;;;;;;;;5097521;28;20063;-78
2023/08/16 14:29:24;;;;;;;1.00;0.90;;;;;;;;;;5115732;28;20028;-78
2023/08/16 14:31:50;;;;;;;1.63;0.88;;;;;;;;;;5063740;28;20024;-78
2023/08/16 14:34:15;;;;;;;1.08;0.82;;;;;;;;;;5115690;28;20474;-78
2023/08/16 14:36:41;;;;;;;1.70;0.88;;;;;;;;;;5115348;28;20357;-78
2023/08/16 14:39:06;;;;;;;1.27;0.90;;;;;;;;;;5097714;28;20027;-78